createdAt,value
2018-10-04T00:02:07.700Z,99.90
2018-10-04T00:04:37.407Z,99.90
2018-10-04T00:07:07.142Z,99.90
2018-10-04T00:09:36.932Z,99.90
2018-10-04T00:12:06.675Z,99.90
2018-10-04T00:14:36.534Z,99.90
2018-10-04T00:17:06.484Z,99.90
2018-10-04T00:19:36.617Z,99.90
2018-10-04T00:22:06.432Z,99.90
2018-10-04T00:24:36.111Z,99.90
2018-10-04T00:27:06.528Z,99.90
2018-10-04T00:29:36.217Z,99.90
2018-10-04T00:32:05.917Z,99.90
2018-10-04T00:34:35.889Z,99.90
2018-10-04T00:37:05.915Z,99.90
2018-10-04T00:39:35.858Z,99.90
2018-10-04T00:42:05.636Z,99.90
2018-10-04T00:44:35.546Z,99.90
2018-10-04T00:47:08.416Z,99.90
2018-10-04T00:49:38.131Z,99.90
2018-10-04T00:52:08.090Z,99.90
2018-10-04T00:54:37.882Z,99.90
2018-10-04T00:57:07.706Z,99.90
2018-10-04T00:59:38.098Z,99.90
2018-10-04T01:02:08.383Z,99.90
2018-10-04T01:04:38.195Z,99.90
2018-10-04T01:07:08.272Z,99.90
2018-10-04T01:09:38.037Z,99.90
2018-10-04T01:12:07.752Z,99.90
2018-10-04T01:14:37.702Z,99.90
2018-10-04T01:17:07.411Z,99.90
2018-10-04T01:19:37.074Z,99.90
2018-10-04T01:22:07.495Z,99.90
2018-10-04T01:24:37.189Z,99.90
2018-10-04T01:27:07.002Z,99.90
2018-10-04T01:29:36.731Z,99.90
2018-10-04T01:32:06.418Z,99.90
2018-10-04T01:34:36.303Z,99.90
2018-10-04T01:37:06.095Z,99.90
2018-10-04T01:39:35.831Z,99.90
2018-10-04T01:42:05.560Z,99.90
2018-10-04T01:44:35.228Z,99.90
2018-10-04T01:47:05.055Z,99.90
2018-10-04T01:49:34.906Z,99.90
2018-10-04T01:52:04.583Z,99.90
2018-10-04T01:54:34.502Z,99.90
2018-10-04T01:57:04.473Z,99.90
2018-10-04T01:59:34.191Z,99.90
2018-10-04T02:02:03.886Z,99.90
2018-10-04T02:04:33.537Z,99.90
2018-10-04T02:07:03.288Z,99.90
2018-10-04T02:09:33.312Z,99.90
2018-10-04T02:12:03.068Z,99.90
2018-10-04T02:14:32.962Z,99.90
2018-10-04T02:17:02.743Z,99.90
2018-10-04T02:19:32.591Z,99.90
2018-10-04T02:22:02.671Z,99.90
2018-10-04T02:24:32.513Z,99.90
2018-10-04T02:27:02.428Z,99.90
2018-10-04T02:29:32.214Z,99.90
2018-10-04T02:32:01.914Z,99.90
2018-10-04T02:34:32.591Z,99.90
2018-10-04T02:37:02.375Z,99.90
2018-10-04T02:39:32.088Z,99.90
2018-10-04T02:42:01.790Z,99.90
2018-10-04T02:44:31.596Z,99.90
2018-10-04T02:47:01.516Z,99.90
2018-10-04T02:49:31.183Z,99.90
2018-10-04T02:52:01.155Z,99.90
2018-10-04T02:54:30.824Z,99.90
2018-10-04T02:57:01.984Z,99.90
2018-10-04T02:59:31.809Z,99.90
2018-10-04T03:02:01.652Z,99.90
2018-10-04T03:04:31.357Z,99.90
2018-10-04T03:07:01.201Z,99.90
2018-10-04T03:09:31.375Z,99.90
2018-10-04T03:12:01.291Z,99.90
2018-10-04T03:14:31.483Z,99.90
2018-10-04T03:17:01.175Z,99.90
2018-10-04T03:19:30.877Z,99.90
2018-10-04T03:22:00.835Z,99.90
2018-10-04T03:24:30.613Z,99.90
2018-10-04T03:27:00.588Z,99.90
2018-10-04T03:29:30.447Z,99.90
2018-10-04T03:32:00.120Z,99.90
2018-10-04T03:34:30.072Z,99.90
2018-10-04T03:36:59.823Z,99.90
2018-10-04T03:39:29.483Z,99.90
2018-10-04T03:41:59.237Z,99.90
2018-10-04T03:44:29.315Z,99.90
2018-10-04T03:46:59.159Z,99.90
2018-10-04T03:49:28.930Z,99.90
2018-10-04T03:51:58.607Z,99.90
2018-10-04T03:54:28.477Z,99.90
2018-10-04T03:56:58.334Z,99.90
2018-10-04T03:59:28.268Z,99.90
2018-10-04T04:01:57.965Z,99.90
2018-10-04T04:04:27.727Z,99.90
2018-10-04T04:06:57.631Z,99.90
2018-10-04T04:09:27.389Z,99.90
2018-10-04T04:11:57.294Z,99.90
2018-10-04T04:14:27.131Z,99.90
2018-10-04T04:16:56.877Z,99.90
2018-10-04T04:19:27.361Z,99.90
2018-10-04T04:21:57.142Z,99.90
2018-10-04T04:24:26.799Z,99.90
2018-10-04T04:26:56.740Z,99.90
2018-10-04T04:29:26.730Z,99.90
2018-10-04T04:31:56.434Z,99.90
2018-10-04T04:34:26.194Z,99.90
2018-10-04T04:36:56.111Z,99.90
2018-10-04T04:39:25.956Z,99.90
2018-10-04T04:41:55.716Z,99.90
2018-10-04T04:44:25.603Z,99.90
2018-10-04T04:46:55.774Z,99.90
2018-10-04T04:49:25.687Z,99.90
2018-10-04T04:51:55.486Z,99.90
2018-10-04T04:55:36.807Z,99.90
2018-10-04T04:58:08.263Z,99.90
2018-10-04T05:00:39.514Z,99.90
2018-10-04T05:03:09.380Z,99.90
2018-10-04T05:05:39.213Z,99.90
2018-10-04T05:08:09.781Z,99.90
2018-10-04T05:10:39.840Z,99.90
2018-10-04T05:13:10.258Z,99.90
2018-10-04T05:15:40.625Z,99.90
2018-10-04T05:18:10.353Z,99.90
2018-10-04T05:20:40.133Z,99.90
2018-10-04T05:23:09.988Z,99.90
2018-10-04T05:25:39.827Z,99.90
2018-10-04T05:28:09.858Z,99.90
2018-10-04T05:30:39.611Z,99.90
2018-10-04T05:33:09.598Z,99.90
2018-10-04T05:35:39.339Z,99.90
2018-10-04T05:38:09.346Z,99.90
2018-10-04T05:40:39.246Z,99.90
2018-10-04T05:43:08.986Z,99.90
2018-10-04T05:45:38.948Z,99.90
2018-10-04T05:48:08.988Z,99.90
2018-10-04T05:50:38.914Z,99.90
2018-10-04T05:53:08.861Z,99.90
2018-10-04T05:55:38.871Z,99.90
2018-10-04T05:58:08.614Z,99.90
2018-10-04T06:00:42.993Z,99.90
2018-10-04T06:03:12.725Z,99.90
2018-10-04T06:05:42.473Z,99.90
2018-10-04T06:08:12.428Z,99.90
2018-10-04T06:10:43.211Z,99.90
2018-10-04T06:13:13.967Z,99.90
2018-10-04T06:15:43.787Z,99.90
2018-10-04T06:18:13.488Z,99.90
2018-10-04T06:20:43.329Z,99.90
2018-10-04T06:23:13.093Z,99.90
2018-10-04T06:25:42.803Z,99.90
2018-10-04T06:28:12.844Z,99.90
2018-10-04T06:30:42.958Z,99.90
2018-10-04T06:33:12.909Z,99.90
2018-10-04T06:35:42.631Z,99.90
2018-10-04T06:38:12.421Z,99.90
2018-10-04T06:40:42.139Z,99.90
2018-10-04T06:43:11.832Z,99.90
2018-10-04T06:45:41.965Z,99.90
2018-10-04T06:48:11.684Z,99.90
2018-10-04T06:50:41.393Z,99.90
2018-10-04T06:53:11.440Z,99.90
2018-10-04T06:55:41.208Z,99.90
2018-10-04T06:58:11.216Z,99.90
2018-10-04T07:00:41.196Z,99.90
2018-10-04T07:03:11.294Z,99.90
2018-10-04T07:05:41.076Z,99.90
2018-10-04T07:08:11.064Z,99.90
2018-10-04T07:10:40.840Z,99.90
2018-10-04T07:13:10.776Z,99.90
2018-10-04T07:15:40.831Z,99.90
2018-10-04T07:18:10.747Z,99.90
2018-10-04T07:20:40.635Z,99.90
2018-10-04T07:23:10.312Z,99.90
2018-10-04T07:25:40.191Z,99.90
2018-10-04T07:28:10.072Z,99.90
2018-10-04T07:30:40.094Z,99.90
2018-10-04T07:33:09.803Z,99.90
2018-10-04T07:35:39.889Z,99.90
2018-10-04T07:38:09.971Z,99.90
2018-10-04T07:40:40.084Z,99.90
2018-10-04T07:43:10.149Z,99.90
2018-10-04T07:45:39.868Z,99.90
2018-10-04T07:48:09.619Z,99.90
2018-10-04T07:50:39.414Z,99.90
2018-10-04T07:53:09.427Z,99.90
2018-10-04T07:55:39.625Z,99.90
2018-10-04T07:58:09.703Z,99.90
2018-10-04T08:00:39.420Z,99.90
2018-10-04T08:03:09.451Z,99.90
2018-10-04T08:05:39.572Z,99.90
2018-10-04T08:08:09.390Z,99.90
2018-10-04T08:10:39.270Z,99.90
2018-10-04T08:13:09.011Z,99.90
2018-10-04T08:15:38.955Z,99.90
2018-10-04T08:18:08.909Z,99.90
2018-10-04T08:20:38.686Z,99.90
2018-10-04T08:23:08.410Z,99.90
2018-10-04T08:25:38.664Z,99.90
2018-10-04T08:28:08.363Z,99.90
2018-10-04T08:30:38.058Z,99.90
2018-10-04T08:33:07.772Z,99.90
2018-10-04T08:35:37.675Z,99.90
2018-10-04T08:38:07.424Z,99.90
2018-10-04T08:40:37.132Z,99.90
2018-10-04T08:43:06.917Z,99.90
2018-10-04T08:45:36.666Z,99.90
2018-10-04T08:48:07.121Z,99.90
2018-10-04T08:50:36.944Z,99.90
2018-10-04T08:53:06.864Z,99.90
2018-10-04T08:55:37.625Z,99.90
2018-10-04T08:58:07.412Z,99.90
2018-10-04T09:00:37.501Z,99.90
2018-10-04T09:03:07.214Z,99.90
2018-10-04T09:05:36.966Z,99.90
2018-10-04T09:08:06.879Z,99.90
2018-10-04T09:10:36.620Z,99.90
2018-10-04T09:13:06.512Z,99.90
2018-10-04T09:15:36.459Z,99.90
2018-10-04T09:18:06.147Z,99.90
2018-10-04T09:20:35.834Z,99.90
2018-10-04T09:23:05.976Z,99.90
2018-10-04T09:25:35.979Z,99.90
2018-10-04T09:28:09.868Z,99.90
2018-10-04T09:30:44.906Z,99.90
2018-10-04T09:33:14.830Z,99.90
2018-10-04T09:35:44.994Z,99.90
2018-10-04T09:38:14.804Z,99.90
2018-10-04T09:40:44.558Z,99.90
2018-10-04T09:43:14.240Z,99.90
2018-10-04T09:45:43.920Z,99.90
2018-10-04T09:48:14.026Z,99.90
2018-10-04T09:50:43.859Z,99.90
2018-10-04T09:53:14.258Z,99.90
2018-10-04T09:55:49.102Z,99.90
2018-10-04T09:58:18.982Z,99.90
2018-10-04T10:01:55.335Z,99.90
2018-10-04T10:04:25.846Z,99.90
2018-10-04T10:06:55.675Z,99.90
2018-10-04T10:09:25.655Z,99.90
2018-10-04T10:11:55.609Z,99.90
2018-10-04T10:14:25.672Z,99.90
2018-10-04T10:16:55.498Z,99.90
2018-10-04T10:19:26.093Z,99.90
2018-10-04T10:21:56.187Z,99.90
2018-10-04T10:24:26.289Z,99.90
2018-10-04T10:26:56.398Z,99.90
2018-10-04T10:29:26.428Z,99.90
2018-10-04T10:31:56.168Z,99.90
2018-10-04T10:34:26.217Z,99.90
2018-10-04T10:36:55.926Z,99.90
2018-10-04T10:39:25.622Z,99.90
2018-10-04T10:41:55.830Z,99.90
2018-10-04T10:44:26.115Z,99.90
2018-10-04T10:46:55.803Z,99.90
2018-10-04T10:49:25.984Z,99.90
2018-10-04T10:51:55.837Z,99.90
2018-10-04T10:54:25.880Z,99.90
2018-10-04T10:56:55.828Z,99.90
2018-10-04T10:59:25.781Z,99.90
2018-10-04T11:01:56.160Z,99.90
2018-10-04T11:04:26.497Z,99.90
2018-10-04T11:06:56.412Z,99.90
2018-10-04T11:09:26.227Z,99.90
2018-10-04T11:11:56.407Z,99.90
2018-10-04T11:14:26.525Z,99.90
2018-10-04T11:16:56.419Z,99.90
2018-10-04T11:19:26.488Z,99.90
2018-10-04T11:21:56.418Z,99.90
2018-10-04T11:24:26.277Z,99.90
2018-10-04T11:26:56.031Z,99.90
2018-10-04T11:29:26.212Z,99.90
2018-10-04T11:31:56.051Z,99.90
2018-10-04T11:34:25.718Z,99.90
2018-10-04T11:36:55.480Z,99.90
2018-10-04T11:39:25.531Z,99.90
2018-10-04T11:41:55.300Z,99.90
2018-10-04T11:44:27.201Z,99.90
2018-10-04T11:47:00.870Z,99.90
2018-10-04T11:49:31.036Z,99.90
2018-10-04T11:52:00.928Z,99.90
2018-10-04T11:54:30.706Z,99.90
2018-10-04T11:57:00.580Z,99.90
2018-10-04T11:59:30.780Z,99.90
2018-10-04T12:02:01.006Z,99.90
2018-10-04T12:04:30.651Z,99.90
2018-10-04T12:07:06.386Z,99.70
2018-10-04T12:09:35.955Z,99.10
2018-10-04T12:12:05.863Z,98.90
2018-10-04T12:14:35.571Z,98.30
2018-10-04T12:17:05.271Z,98.30
2018-10-04T12:19:34.868Z,98.90
2018-10-04T12:22:05.639Z,97.70
2018-10-04T12:24:35.779Z,97.10
2018-10-04T12:27:05.544Z,96.70
2018-10-04T12:29:35.643Z,97.20
2018-10-04T12:32:05.613Z,96.90
2018-10-04T12:34:35.547Z,96.90
2018-10-04T12:37:05.330Z,97.30
2018-10-04T12:39:35.275Z,97.10
2018-10-04T12:42:05.187Z,96.50
2018-10-04T12:44:35.159Z,97.10
2018-10-04T12:47:04.891Z,97.50
2018-10-04T12:49:34.573Z,96.70
2018-10-04T12:52:04.219Z,96.30
2018-10-04T12:54:33.858Z,96.80
2018-10-04T12:57:03.488Z,96.40
2018-10-04T12:59:33.154Z,96.60
2018-10-04T13:02:03.573Z,96.50
2018-10-04T13:04:33.391Z,96.40
2018-10-04T13:07:03.289Z,95.60
2018-10-04T13:09:40.116Z,95.10
2018-10-04T13:12:14.078Z,94.80
2018-10-04T13:14:50.959Z,94.70
2018-10-04T13:17:21.239Z,94.40
2018-10-04T13:19:51.246Z,94.50
2018-10-04T13:22:21.207Z,94.90
2018-10-04T13:24:51.103Z,94.90
2018-10-04T13:27:21.031Z,94.80
2018-10-04T13:29:51.067Z,94.90
2018-10-04T13:32:21.035Z,94.80
2018-10-04T13:34:50.880Z,94.30
2018-10-04T13:37:20.929Z,94.70
2018-10-04T13:39:50.816Z,94.60
2018-10-04T13:42:20.775Z,94.70
2018-10-04T13:44:51.283Z,94.60
2018-10-04T13:47:20.988Z,94.50
2018-10-04T13:49:50.846Z,94.20
2018-10-04T13:52:20.844Z,94.50
2018-10-04T13:54:50.507Z,94.40
2018-10-04T13:57:20.568Z,94.40
2018-10-04T13:59:50.239Z,94.60
2018-10-04T14:02:19.913Z,94.40
2018-10-04T14:04:49.987Z,94.10
2018-10-04T14:07:19.854Z,93.90
2018-10-04T14:09:49.977Z,94.10
2018-10-04T14:12:19.966Z,94.20
2018-10-04T14:14:49.685Z,94.20
2018-10-04T14:17:19.384Z,93.70
2018-10-04T14:19:49.383Z,93.20
2018-10-04T14:22:19.046Z,93.50
2018-10-04T14:24:49.081Z,93.30
2018-10-04T14:27:19.736Z,93.40
2018-10-04T14:29:49.691Z,93.50
2018-10-04T14:32:19.500Z,93.50
2018-10-04T14:34:49.231Z,93.50
2018-10-04T14:37:18.898Z,93.90
2018-10-04T14:39:48.598Z,93.50
2018-10-04T14:42:18.931Z,93.60
2018-10-04T14:44:48.763Z,93.10
2018-10-04T14:47:20.278Z,93.50
2018-10-04T14:49:50.118Z,93.50
2018-10-04T14:52:23.496Z,93.40
2018-10-04T14:54:53.496Z,93.50
2018-10-04T14:57:23.530Z,93.30
2018-10-04T14:59:53.231Z,93.40
2018-10-04T15:02:22.914Z,93.40
2018-10-04T15:04:52.707Z,93.40
2018-10-04T15:07:23.631Z,93.10
2018-10-04T15:09:53.961Z,93.00
2018-10-04T15:12:23.950Z,93.40
2018-10-04T15:14:54.807Z,93.00
2018-10-04T15:17:25.114Z,93.50
2018-10-04T15:19:55.120Z,93.50
2018-10-04T15:22:25.086Z,93.30
2018-10-04T15:24:55.177Z,93.30
2018-10-04T15:27:24.787Z,93.00
2018-10-04T15:29:54.593Z,93.30
2018-10-04T15:32:24.680Z,93.00
2018-10-04T15:34:54.696Z,93.50
2018-10-04T15:37:24.758Z,93.30
2018-10-04T15:39:54.748Z,93.70
2018-10-04T15:42:25.367Z,93.70
2018-10-04T15:44:55.771Z,93.60
2018-10-04T15:47:25.620Z,93.90
2018-10-04T15:49:55.720Z,93.70
2018-10-04T15:52:25.564Z,93.50
2018-10-04T15:54:55.261Z,93.80
2018-10-04T15:57:27.347Z,94.00
2018-10-04T15:59:57.397Z,94.10
2018-10-04T16:02:27.340Z,93.90
2018-10-04T16:04:57.168Z,94.00
2018-10-04T16:07:32.734Z,94.30
2018-10-04T16:10:03.722Z,94.20
2018-10-04T16:12:34.004Z,94.20
2018-10-04T16:15:05.217Z,94.60
2018-10-04T16:17:35.088Z,94.70
2018-10-04T16:20:04.818Z,94.60
2018-10-04T16:22:34.518Z,94.50
2018-10-04T16:25:04.481Z,94.90
2018-10-04T16:27:39.979Z,94.80
2018-10-04T16:30:09.955Z,95.00
2018-10-04T16:32:39.646Z,95.10
2018-10-04T16:35:09.606Z,95.20
2018-10-04T16:37:39.843Z,95.40
2018-10-04T16:40:15.227Z,95.10
2018-10-04T16:42:45.088Z,95.40
2018-10-04T16:45:14.825Z,95.80
2018-10-04T16:47:44.550Z,96.20
2018-10-04T16:50:14.371Z,96.30
2018-10-04T16:52:44.423Z,96.50
2018-10-04T16:55:14.945Z,96.90
2018-10-04T16:57:45.139Z,97.50
2018-10-04T17:00:15.026Z,97.40
2018-10-04T17:02:44.675Z,97.70
2018-10-04T17:05:14.943Z,97.50
2018-10-04T17:07:44.598Z,97.80
2018-10-04T17:10:14.307Z,98.50
2018-10-04T17:12:47.491Z,99.40
2018-10-04T17:15:17.140Z,99.90
2018-10-04T17:17:47.454Z,99.90
2018-10-04T17:20:17.404Z,99.90
2018-10-04T17:22:47.359Z,99.90
2018-10-04T17:25:17.028Z,99.90
2018-10-04T17:27:46.735Z,99.90
2018-10-04T17:30:16.822Z,99.90
2018-10-04T17:32:46.505Z,99.40
2018-10-04T17:35:17.180Z,99.90
2018-10-04T17:37:46.931Z,99.90
2018-10-04T17:40:21.369Z,99.90
2018-10-04T17:42:51.382Z,99.90
2018-10-04T17:45:21.075Z,99.90
2018-10-04T17:47:50.975Z,99.90
2018-10-04T17:50:20.524Z,99.90
2018-10-04T17:52:50.848Z,99.90
2018-10-04T17:55:20.824Z,99.90
2018-10-04T17:57:50.486Z,99.90
2018-10-04T18:00:20.466Z,99.90
2018-10-04T18:02:50.261Z,99.90
2018-10-04T18:05:20.032Z,99.90
2018-10-04T18:08:00.067Z,99.90
2018-10-04T18:10:30.839Z,99.90
2018-10-04T18:13:00.619Z,99.90
2018-10-04T18:15:32.655Z,99.90
2018-10-04T18:18:02.331Z,99.90
2018-10-04T18:20:32.607Z,99.90
2018-10-04T18:23:04.415Z,99.90
2018-10-04T18:25:34.326Z,99.90
2018-10-04T18:28:04.018Z,99.90
2018-10-04T18:30:34.340Z,99.90
2018-10-04T18:33:06.146Z,99.90
2018-10-04T18:35:36.831Z,99.90
2018-10-04T18:38:07.253Z,99.90
2018-10-04T18:40:37.206Z,99.90
2018-10-04T18:43:07.021Z,99.90
2018-10-04T18:45:37.049Z,99.90
2018-10-04T18:48:07.183Z,99.90
2018-10-04T18:50:38.010Z,99.90
2018-10-04T18:53:07.983Z,99.90
2018-10-04T18:55:38.097Z,99.90
2018-10-04T18:58:08.883Z,99.90
2018-10-04T19:00:38.710Z,99.90
2018-10-04T19:03:08.930Z,99.90
2018-10-04T19:05:38.845Z,99.90
2018-10-04T19:08:08.507Z,99.90
2018-10-04T19:10:40.251Z,99.90
2018-10-04T19:13:10.296Z,99.90
2018-10-04T19:15:40.080Z,99.90
2018-10-04T19:18:10.085Z,99.90
2018-10-04T19:20:40.202Z,99.90
2018-10-04T19:23:10.295Z,99.90
2018-10-04T19:25:40.392Z,99.90
2018-10-04T19:28:10.632Z,99.90
2018-10-04T19:30:41.371Z,99.90
2018-10-04T19:33:11.558Z,99.90
2018-10-04T19:35:41.632Z,99.90
2018-10-04T19:38:11.479Z,99.90
2018-10-04T19:40:41.425Z,99.90
2018-10-04T19:43:11.407Z,99.90
2018-10-04T19:45:42.723Z,99.90
2018-10-04T19:48:12.729Z,99.90
2018-10-04T19:50:43.059Z,99.90
2018-10-04T19:53:12.917Z,99.90
2018-10-04T19:55:42.661Z,99.90
2018-10-04T19:58:12.681Z,99.90
2018-10-04T20:00:42.627Z,99.90
2018-10-04T20:03:12.486Z,99.90
2018-10-04T20:05:42.457Z,99.90
2018-10-04T20:08:12.791Z,99.90
2018-10-04T20:10:42.948Z,99.90
2018-10-04T20:13:14.009Z,99.90
2018-10-04T20:15:43.929Z,99.90
2018-10-04T20:18:18.764Z,99.90
2018-10-04T20:20:48.729Z,99.90
2018-10-04T20:23:18.644Z,99.90
2018-10-04T20:25:48.531Z,99.90
2018-10-04T20:28:18.487Z,99.90
2018-10-04T20:30:49.836Z,99.90
2018-10-04T20:33:19.716Z,99.90
2018-10-04T20:35:49.554Z,99.90
2018-10-04T20:38:19.512Z,99.90
2018-10-04T20:40:50.397Z,99.90
2018-10-04T20:43:20.419Z,99.90
2018-10-04T20:45:50.226Z,99.90
2018-10-04T20:48:20.216Z,99.90
2018-10-04T20:50:50.229Z,99.90
2018-10-04T20:53:20.333Z,99.90
2018-10-04T20:55:50.214Z,99.90
2018-10-04T20:58:20.605Z,99.90
2018-10-04T21:00:50.851Z,99.90
2018-10-04T21:03:20.753Z,99.90
2018-10-04T21:05:50.694Z,99.90
2018-10-04T21:08:20.601Z,99.90
2018-10-04T21:10:50.625Z,99.90
2018-10-04T21:13:20.626Z,99.90
2018-10-04T21:15:50.609Z,99.90
2018-10-04T21:18:20.843Z,99.90
2018-10-04T21:20:50.597Z,99.90
2018-10-04T21:23:20.602Z,99.90
2018-10-04T21:25:50.388Z,99.90
2018-10-04T21:28:20.218Z,99.90
2018-10-04T21:30:51.239Z,99.90
2018-10-04T21:33:21.328Z,99.90
2018-10-04T21:35:51.211Z,99.90
2018-10-04T21:38:21.147Z,99.90
2018-10-04T21:40:51.192Z,99.90
2018-10-04T21:43:21.002Z,99.90
2018-10-04T21:45:54.360Z,99.90
2018-10-04T21:48:24.313Z,99.90
2018-10-04T21:50:54.284Z,99.90
2018-10-04T21:53:28.707Z,99.90
2018-10-04T21:56:03.488Z,99.90
2018-10-04T21:58:33.331Z,99.90
2018-10-04T22:01:04.914Z,99.90
2018-10-04T22:03:34.756Z,99.90
2018-10-04T22:06:04.799Z,99.90
2018-10-04T22:08:34.616Z,99.90
2018-10-04T22:11:04.380Z,99.90
2018-10-04T22:13:34.099Z,99.90
2018-10-04T22:16:04.112Z,99.90
2018-10-04T22:18:33.858Z,99.90
2018-10-04T22:21:03.680Z,99.90
2018-10-04T22:23:33.932Z,99.90
2018-10-04T22:26:04.045Z,99.90
2018-10-04T22:28:34.752Z,99.90
2018-10-04T22:31:04.850Z,99.90
2018-10-04T22:33:34.848Z,99.90
2018-10-04T22:36:04.643Z,99.90
2018-10-04T22:38:34.681Z,99.90
2018-10-04T22:41:04.801Z,99.90
2018-10-04T22:43:34.543Z,99.90
2018-10-04T22:46:04.661Z,99.90
2018-10-04T22:48:34.621Z,99.90
2018-10-04T22:51:04.751Z,99.90
2018-10-04T22:53:34.768Z,99.90
2018-10-04T22:56:04.576Z,99.90
2018-10-04T22:58:34.276Z,99.90
2018-10-04T23:01:04.486Z,99.90
2018-10-04T23:03:34.433Z,99.90
2018-10-04T23:06:04.531Z,99.90
2018-10-04T23:08:34.596Z,99.90
2018-10-04T23:11:04.383Z,99.90
2018-10-04T23:13:34.240Z,99.90
2018-10-04T23:16:04.220Z,99.90
2018-10-04T23:18:35.178Z,99.90
2018-10-04T23:21:05.135Z,99.90
2018-10-04T23:23:35.004Z,99.90
2018-10-04T23:26:05.023Z,99.90
2018-10-04T23:28:34.951Z,99.90
2018-10-04T23:31:04.735Z,99.90
2018-10-04T23:33:34.562Z,99.90
2018-10-04T23:36:04.490Z,99.90
2018-10-04T23:38:34.460Z,99.90
2018-10-04T23:41:04.523Z,99.90
2018-10-04T23:43:34.518Z,99.90
2018-10-04T23:46:04.496Z,99.90
2018-10-04T23:48:34.720Z,99.90
2018-10-04T23:51:04.856Z,99.90
2018-10-04T23:53:34.711Z,99.90
2018-10-04T23:56:04.703Z,99.90
2018-10-04T23:58:34.425Z,99.90
